sensor_id;sensor_type;location;lat;lon;timestamp;P1;durP1;ratioP1;P2;durP2;ratioP2
14019;SDS011;7085;51.428;6.796;2023-01-15T00:01:23;1.20;;;1.10;;
14019;SDS011;7085;51.428;6.796;2023-01-15T00:03:50;1.73;;;1.20;;
14019;SDS011;7085;51.428;6.796;2023-01-15T00:06:18;2.50;;;1.07;;
14019;SDS011;7085;51.428;6.796;2023-01-15T00:08:45;2.17;;;1.10;;
14019;SDS011;7085;51.428;6.796;2023-01-15T00:11:13;2.47;;;1.07;;
14019;SDS011;7085;51.428;6.796;2023-01-15T00:13:41;1.07;;;0.93;;
14019;SDS011;7085;51.428;6.796;2023-01-15T00:16:09;4.73;;;1.20;;
14019;SDS011;7085;51.428;6.796;2023-01-15T00:18:37;2.87;;;1.00;;
14019;SDS011;7085;51.428;6.796;2023-01-15T00:21:05;3.87;;;1.03;;
14019;SDS011;7085;51.428;6.796;2023-01-15T00:23:32;3.43;;;0.93;;
14019;SDS011;7085;51.428;6.796;2023-01-15T00:26:20;2.53;;;1.13;;
14019;SDS011;7085;51.428;6.796;2023-01-15T00:29:05;2.63;;;1.00;;
14019;SDS011;7085;51.428;6.796;2023-01-15T00:31:33;3.97;;;1.10;;
14019;SDS011;7085;51.428;6.796;2023-01-15T00:34:01;5.10;;;1.30;;
14019;SDS011;7085;51.428;6.796;2023-01-15T00:36:28;4.53;;;1.43;;
14019;SDS011;7085;51.428;6.796;2023-01-15T00:38:57;2.97;;;1.23;;
14019;SDS011;7085;51.428;6.796;2023-01-15T00:41:26;2.13;;;1.20;;
14019;SDS011;7085;51.428;6.796;2023-01-15T00:43:53;2.17;;;1.27;;
14019;SDS011;7085;51.428;6.796;2023-01-15T00:46:21;3.93;;;1.87;;
14019;SDS011;7085;51.428;6.796;2023-01-15T00:48:48;4.83;;;2.07;;
14019;SDS011;7085;51.428;6.796;2023-01-15T00:51:15;4.93;;;3.10;;
14019;SDS011;7085;51.428;6.796;2023-01-15T00:53:42;5.63;;;2.20;;
14019;SDS011;7085;51.428;6.796;2023-01-15T00:56:09;6.67;;;2.77;;
14019;SDS011;7085;51.428;6.796;2023-01-15T00:58:37;5.37;;;2.10;;
14019;SDS011;7085;51.428;6.796;2023-01-15T01:01:04;5.33;;;1.60;;
14019;SDS011;7085;51.428;6.796;2023-01-15T01:03:32;2.37;;;1.17;;
14019;SDS011;7085;51.428;6.796;2023-01-15T01:05:59;4.00;;;1.53;;
14019;SDS011;7085;51.428;6.796;2023-01-15T01:08:26;7.77;;;1.97;;
14019;SDS011;7085;51.428;6.796;2023-01-15T01:11:00;5.10;;;2.03;;
14019;SDS011;7085;51.428;6.796;2023-01-15T01:13:27;2.43;;;1.83;;
14019;SDS011;7085;51.428;6.796;2023-01-15T01:15:56;5.10;;;2.00;;
14019;SDS011;7085;51.428;6.796;2023-01-15T01:18:23;4.60;;;2.33;;
14019;SDS011;7085;51.428;6.796;2023-01-15T01:20:50;5.33;;;2.80;;
14019;SDS011;7085;51.428;6.796;2023-01-15T01:23:17;3.10;;;1.73;;
14019;SDS011;7085;51.428;6.796;2023-01-15T01:25:45;3.60;;;1.87;;
14019;SDS011;7085;51.428;6.796;2023-01-15T01:28:12;5.20;;;2.30;;
14019;SDS011;7085;51.428;6.796;2023-01-15T01:30:39;3.50;;;2.47;;
14019;SDS011;7085;51.428;6.796;2023-01-15T01:33:07;4.60;;;1.70;;
14019;SDS011;7085;51.428;6.796;2023-01-15T01:35:34;2.57;;;1.53;;
14019;SDS011;7085;51.428;6.796;2023-01-15T01:38:01;4.87;;;1.00;;
14019;SDS011;7085;51.428;6.796;2023-01-15T01:40:28;1.40;;;1.30;;
14019;SDS011;7085;51.428;6.796;2023-01-15T01:42:56;2.37;;;1.10;;
14019;SDS011;7085;51.428;6.796;2023-01-15T01:45:23;2.83;;;0.97;;
14019;SDS011;7085;51.428;6.796;2023-01-15T01:47:51;2.10;;;1.40;;
14019;SDS011;7085;51.428;6.796;2023-01-15T01:50:21;2.40;;;1.23;;
14019;SDS011;7085;51.428;6.796;2023-01-15T01:52:50;2.23;;;1.40;;
14019;SDS011;7085;51.428;6.796;2023-01-15T01:55:19;4.77;;;1.80;;
14019;SDS011;7085;51.428;6.796;2023-01-15T01:57:47;4.57;;;1.97;;
14019;SDS011;7085;51.428;6.796;2023-01-15T02:00:16;3.20;;;1.40;;
14019;SDS011;7085;51.428;6.796;2023-01-15T02:02:44;4.57;;;1.53;;
14019;SDS011;7085;51.428;6.796;2023-01-15T02:05:12;3.17;;;1.23;;
14019;SDS011;7085;51.428;6.796;2023-01-15T02:07:42;2.27;;;1.90;;
14019;SDS011;7085;51.428;6.796;2023-01-15T02:10:13;3.47;;;1.83;;
14019;SDS011;7085;51.428;6.796;2023-01-15T02:12:40;4.47;;;2.13;;
14019;SDS011;7085;51.428;6.796;2023-01-15T02:15:10;5.10;;;1.80;;
14019;SDS011;7085;51.428;6.796;2023-01-15T02:17:40;3.00;;;1.80;;
14019;SDS011;7085;51.428;6.796;2023-01-15T02:20:15;4.10;;;1.90;;
14019;SDS011;7085;51.428;6.796;2023-01-15T02:22:52;6.83;;;2.20;;
14019;SDS011;7085;51.428;6.796;2023-01-15T02:25:21;2.90;;;1.47;;
14019;SDS011;7085;51.428;6.796;2023-01-15T02:27:56;4.00;;;2.03;;
14019;SDS011;7085;51.428;6.796;2023-01-15T02:30:27;6.87;;;2.27;;
14019;SDS011;7085;51.428;6.796;2023-01-15T02:32:56;3.27;;;1.83;;
14019;SDS011;7085;51.428;6.796;2023-01-15T02:35:26;4.37;;;1.93;;
14019;SDS011;7085;51.428;6.796;2023-01-15T02:37:54;5.63;;;2.23;;
14019;SDS011;7085;51.428;6.796;2023-01-15T02:40:23;4.93;;;1.93;;
14019;SDS011;7085;51.428;6.796;2023-01-15T02:42:51;2.43;;;1.63;;
14019;SDS011;7085;51.428;6.796;2023-01-15T02:45:21;4.43;;;1.43;;
14019;SDS011;7085;51.428;6.796;2023-01-15T02:47:51;4.53;;;1.13;;
14019;SDS011;7085;51.428;6.796;2023-01-15T02:50:19;2.30;;;1.10;;
14019;SDS011;7085;51.428;6.796;2023-01-15T02:52:48;3.53;;;1.77;;
14019;SDS011;7085;51.428;6.796;2023-01-15T02:55:18;3.67;;;2.00;;
14019;SDS011;7085;51.428;6.796;2023-01-15T02:57:46;3.67;;;2.00;;
14019;SDS011;7085;51.428;6.796;2023-01-15T03:00:15;5.77;;;1.97;;
14019;SDS011;7085;51.428;6.796;2023-01-15T03:02:46;2.93;;;2.07;;
14019;SDS011;7085;51.428;6.796;2023-01-15T03:05:16;5.03;;;2.17;;
14019;SDS011;7085;51.428;6.796;2023-01-15T03:07:45;3.07;;;1.33;;
14019;SDS011;7085;51.428;6.796;2023-01-15T03:10:14;2.87;;;1.67;;
14019;SDS011;7085;51.428;6.796;2023-01-15T03:12:43;2.60;;;1.37;;
14019;SDS011;7085;51.428;6.796;2023-01-15T03:15:35;3.90;;;1.03;;
14019;SDS011;7085;51.428;6.796;2023-01-15T03:18:34;2.53;;;0.90;;
14019;SDS011;7085;51.428;6.796;2023-01-15T03:21:03;2.73;;;1.50;;
14019;SDS011;7085;51.428;6.796;2023-01-15T03:23:32;5.33;;;1.90;;
14019;SDS011;7085;51.428;6.796;2023-01-15T03:26:01;4.07;;;1.43;;
14019;SDS011;7085;51.428;6.796;2023-01-15T03:28:28;6.97;;;2.63;;
14019;SDS011;7085;51.428;6.796;2023-01-15T03:30:57;4.37;;;1.67;;
14019;SDS011;7085;51.428;6.796;2023-01-15T03:33:24;3.73;;;1.70;;
14019;SDS011;7085;51.428;6.796;2023-01-15T03:35:54;4.90;;;1.70;;
14019;SDS011;7085;51.428;6.796;2023-01-15T03:38:23;2.93;;;1.00;;
14019;SDS011;7085;51.428;6.796;2023-01-15T03:40:52;4.03;;;1.30;;
14019;SDS011;7085;51.428;6.796;2023-01-15T03:43:20;2.90;;;0.80;;
14019;SDS011;7085;51.428;6.796;2023-01-15T03:46:13;3.53;;;1.10;;
14019;SDS011;7085;51.428;6.796;2023-01-15T03:48:42;4.17;;;1.03;;
14019;SDS011;7085;51.428;6.796;2023-01-15T03:51:12;3.33;;;0.90;;
14019;SDS011;7085;51.428;6.796;2023-01-15T03:53:42;2.87;;;1.03;;
14019;SDS011;7085;51.428;6.796;2023-01-15T03:56:12;1.70;;;0.87;;
14019;SDS011;7085;51.428;6.796;2023-01-15T03:58:41;1.87;;;0.90;;
14019;SDS011;7085;51.428;6.796;2023-01-15T04:01:10;2.30;;;1.37;;
14019;SDS011;7085;51.428;6.796;2023-01-15T04:03:38;2.10;;;1.07;;
14019;SDS011;7085;51.428;6.796;2023-01-15T04:06:05;2.80;;;1.00;;
14019;SDS011;7085;51.428;6.796;2023-01-15T04:08:36;5.70;;;1.40;;
14019;SDS011;7085;51.428;6.796;2023-01-15T04:11:04;2.13;;;1.03;;
14019;SDS011;7085;51.428;6.796;2023-01-15T04:13:31;4.73;;;1.20;;
14019;SDS011;7085;51.428;6.796;2023-01-15T04:15:58;3.93;;;1.70;;
14019;SDS011;7085;51.428;6.796;2023-01-15T04:18:25;1.90;;;1.47;;
14019;SDS011;7085;51.428;6.796;2023-01-15T04:20:52;6.47;;;1.40;;
14019;SDS011;7085;51.428;6.796;2023-01-15T04:23:19;4.80;;;1.67;;
14019;SDS011;7085;51.428;6.796;2023-01-15T04:25:48;3.97;;;1.40;;
14019;SDS011;7085;51.428;6.796;2023-01-15T04:28:15;8.33;;;1.77;;
14019;SDS011;7085;51.428;6.796;2023-01-15T04:30:42;2.60;;;1.67;;
14019;SDS011;7085;51.428;6.796;2023-01-15T04:33:10;4.93;;;1.40;;
14019;SDS011;7085;51.428;6.796;2023-01-15T04:35:37;3.77;;;1.77;;
14019;SDS011;7085;51.428;6.796;2023-01-15T04:38:06;7.63;;;2.00;;
14019;SDS011;7085;51.428;6.796;2023-01-15T04:40:33;6.60;;;1.97;;
14019;SDS011;7085;51.428;6.796;2023-01-15T04:43:19;7.03;;;2.20;;
14019;SDS011;7085;51.428;6.796;2023-01-15T04:46:03;4.80;;;1.57;;
14019;SDS011;7085;51.428;6.796;2023-01-15T04:48:30;4.83;;;1.83;;
14019;SDS011;7085;51.428;6.796;2023-01-15T04:51:00;6.60;;;1.93;;
14019;SDS011;7085;51.428;6.796;2023-01-15T04:53:27;3.27;;;1.10;;
14019;SDS011;7085;51.428;6.796;2023-01-15T04:55:58;2.77;;;1.43;;
14019;SDS011;7085;51.428;6.796;2023-01-15T04:58:27;6.30;;;1.20;;
14019;SDS011;7085;51.428;6.796;2023-01-15T05:00:54;2.63;;;1.17;;
14019;SDS011;7085;51.428;6.796;2023-01-15T05:03:21;3.33;;;1.53;;
14019;SDS011;7085;51.428;6.796;2023-01-15T05:05:48;1.63;;;0.80;;
14019;SDS011;7085;51.428;6.796;2023-01-15T05:08:15;3.60;;;0.93;;
14019;SDS011;7085;51.428;6.796;2023-01-15T05:10:42;4.07;;;1.07;;
14019;SDS011;7085;51.428;6.796;2023-01-15T05:13:09;2.53;;;0.90;;
14019;SDS011;7085;51.428;6.796;2023-01-15T05:15:38;6.33;;;1.57;;
14019;SDS011;7085;51.428;6.796;2023-01-15T05:18:06;4.57;;;2.37;;
14019;SDS011;7085;51.428;6.796;2023-01-15T05:20:38;12.10;;;2.60;;
14019;SDS011;7085;51.428;6.796;2023-01-15T05:23:05;3.73;;;1.67;;
14019;SDS011;7085;51.428;6.796;2023-01-15T05:25:34;3.30;;;1.90;;
14019;SDS011;7085;51.428;6.796;2023-01-15T05:28:01;5.73;;;1.60;;
14019;SDS011;7085;51.428;6.796;2023-01-15T05:30:28;8.93;;;1.80;;
14019;SDS011;7085;51.428;6.796;2023-01-15T05:32:57;7.73;;;1.90;;
14019;SDS011;7085;51.428;6.796;2023-01-15T05:35:24;5.90;;;1.57;;
14019;SDS011;7085;51.428;6.796;2023-01-15T05:37:51;6.00;;;1.93;;
14019;SDS011;7085;51.428;6.796;2023-01-15T05:40:18;6.13;;;1.30;;
14019;SDS011;7085;51.428;6.796;2023-01-15T05:42:45;6.53;;;1.40;;
14019;SDS011;7085;51.428;6.796;2023-01-15T05:45:12;4.57;;;1.60;;
14019;SDS011;7085;51.428;6.796;2023-01-15T05:47:39;2.70;;;1.27;;
14019;SDS011;7085;51.428;6.796;2023-01-15T05:50:08;5.47;;;1.60;;
14019;SDS011;7085;51.428;6.796;2023-01-15T05:52:36;4.50;;;1.23;;
14019;SDS011;7085;51.428;6.796;2023-01-15T05:55:03;5.67;;;1.40;;
14019;SDS011;7085;51.428;6.796;2023-01-15T05:57:30;7.73;;;1.73;;
14019;SDS011;7085;51.428;6.796;2023-01-15T05:59:57;9.23;;;1.30;;
14019;SDS011;7085;51.428;6.796;2023-01-15T06:02:24;6.90;;;1.40;;
14019;SDS011;7085;51.428;6.796;2023-01-15T06:04:51;3.80;;;1.13;;
14019;SDS011;7085;51.428;6.796;2023-01-15T06:07:20;4.60;;;1.00;;
14019;SDS011;7085;51.428;6.796;2023-01-15T06:09:47;4.53;;;1.43;;
14019;SDS011;7085;51.428;6.796;2023-01-15T06:12:14;2.93;;;1.50;;
14019;SDS011;7085;51.428;6.796;2023-01-15T06:14:41;4.73;;;1.10;;
14019;SDS011;7085;51.428;6.796;2023-01-15T06:17:08;4.13;;;1.33;;
14019;SDS011;7085;51.428;6.796;2023-01-15T06:19:35;6.33;;;1.50;;
14019;SDS011;7085;51.428;6.796;2023-01-15T06:22:02;7.23;;;1.73;;
14019;SDS011;7085;51.428;6.796;2023-01-15T06:24:30;5.30;;;1.20;;
14019;SDS011;7085;51.428;6.796;2023-01-15T06:26:57;5.83;;;1.87;;
14019;SDS011;7085;51.428;6.796;2023-01-15T06:29:25;1.77;;;1.10;;
14019;SDS011;7085;51.428;6.796;2023-01-15T06:31:52;6.17;;;1.03;;
14019;SDS011;7085;51.428;6.796;2023-01-15T06:34:19;5.63;;;1.03;;
14019;SDS011;7085;51.428;6.796;2023-01-15T06:36:46;3.57;;;1.00;;
14019;SDS011;7085;51.428;6.796;2023-01-15T06:39:13;5.03;;;1.33;;
14019;SDS011;7085;51.428;6.796;2023-01-15T06:41:42;5.50;;;1.53;;
14019;SDS011;7085;51.428;6.796;2023-01-15T06:44:26;5.10;;;1.50;;
14019;SDS011;7085;51.428;6.796;2023-01-15T06:47:12;3.60;;;1.43;;
14019;SDS011;7085;51.428;6.796;2023-01-15T06:49:45;6.83;;;1.40;;
14019;SDS011;7085;51.428;6.796;2023-01-15T06:52:13;6.43;;;2.20;;
14019;SDS011;7085;51.428;6.796;2023-01-15T06:54:40;8.80;;;1.50;;
14019;SDS011;7085;51.428;6.796;2023-01-15T06:57:08;4.77;;;1.27;;
14019;SDS011;7085;51.428;6.796;2023-01-15T06:59:35;3.60;;;1.40;;
14019;SDS011;7085;51.428;6.796;2023-01-15T07:02:02;2.80;;;1.10;;
14019;SDS011;7085;51.428;6.796;2023-01-15T07:04:29;4.70;;;1.60;;
14019;SDS011;7085;51.428;6.796;2023-01-15T07:06:57;6.17;;;1.37;;
14019;SDS011;7085;51.428;6.796;2023-01-15T07:09:24;5.67;;;1.20;;
14019;SDS011;7085;51.428;6.796;2023-01-15T07:11:51;5.47;;;1.70;;
14019;SDS011;7085;51.428;6.796;2023-01-15T07:14:20;5.20;;;1.30;;
14019;SDS011;7085;51.428;6.796;2023-01-15T07:16:48;5.60;;;1.93;;
14019;SDS011;7085;51.428;6.796;2023-01-15T07:19:15;2.53;;;1.07;;
14019;SDS011;7085;51.428;6.796;2023-01-15T07:21:42;5.23;;;1.20;;
14019;SDS011;7085;51.428;6.796;2023-01-15T07:24:09;2.97;;;1.00;;
14019;SDS011;7085;51.428;6.796;2023-01-15T07:26:37;3.20;;;0.73;;
14019;SDS011;7085;51.428;6.796;2023-01-15T07:29:04;2.77;;;1.90;;
14019;SDS011;7085;51.428;6.796;2023-01-15T07:31:33;2.27;;;1.20;;
14019;SDS011;7085;51.428;6.796;2023-01-15T07:34:00;3.73;;;1.20;;
14019;SDS011;7085;51.428;6.796;2023-01-15T07:36:27;3.33;;;1.30;;
14019;SDS011;7085;51.428;6.796;2023-01-15T07:38:54;2.03;;;1.20;;
14019;SDS011;7085;51.428;6.796;2023-01-15T07:41:21;2.70;;;0.97;;
14019;SDS011;7085;51.428;6.796;2023-01-15T07:44:07;4.43;;;1.50;;
14019;SDS011;7085;51.428;6.796;2023-01-15T07:46:54;2.77;;;1.30;;
14019;SDS011;7085;51.428;6.796;2023-01-15T07:49:39;4.77;;;1.50;;
14019;SDS011;7085;51.428;6.796;2023-01-15T07:52:13;4.67;;;1.77;;
14019;SDS011;7085;51.428;6.796;2023-01-15T07:54:40;1.90;;;0.97;;
14019;SDS011;7085;51.428;6.796;2023-01-15T07:57:07;4.57;;;1.20;;
14019;SDS011;7085;51.428;6.796;2023-01-15T07:59:35;6.23;;;1.30;;
14019;SDS011;7085;51.428;6.796;2023-01-15T08:02:03;2.97;;;1.20;;
14019;SDS011;7085;51.428;6.796;2023-01-15T08:04:30;5.57;;;1.53;;
14019;SDS011;7085;51.428;6.796;2023-01-15T08:06:58;2.73;;;1.37;;
14019;SDS011;7085;51.428;6.796;2023-01-15T08:09:25;3.97;;;1.67;;
14019;SDS011;7085;51.428;6.796;2023-01-15T08:11:52;3.63;;;1.60;;
14019;SDS011;7085;51.428;6.796;2023-01-15T08:14:37;8.27;;;1.63;;
14019;SDS011;7085;51.428;6.796;2023-01-15T08:17:23;4.63;;;0.93;;
14019;SDS011;7085;51.428;6.796;2023-01-15T08:19:50;4.07;;;1.40;;
14019;SDS011;7085;51.428;6.796;2023-01-15T08:22:17;6.43;;;1.90;;
14019;SDS011;7085;51.428;6.796;2023-01-15T08:24:44;4.00;;;1.30;;
14019;SDS011;7085;51.428;6.796;2023-01-15T08:27:12;2.13;;;1.10;;
14019;SDS011;7085;51.428;6.796;2023-01-15T08:29:39;2.53;;;0.97;;
14019;SDS011;7085;51.428;6.796;2023-01-15T08:32:06;2.73;;;1.40;;
14019;SDS011;7085;51.428;6.796;2023-01-15T08:34:34;2.17;;;0.90;;
14019;SDS011;7085;51.428;6.796;2023-01-15T08:37:01;3.70;;;1.10;;
14019;SDS011;7085;51.428;6.796;2023-01-15T08:39:28;1.07;;;0.70;;
14019;SDS011;7085;51.428;6.796;2023-01-15T08:41:55;6.40;;;1.30;;
14019;SDS011;7085;51.428;6.796;2023-01-15T08:44:22;3.53;;;1.43;;
14019;SDS011;7085;51.428;6.796;2023-01-15T08:46:50;3.37;;;1.20;;
14019;SDS011;7085;51.428;6.796;2023-01-15T08:49:18;3.50;;;0.97;;
14019;SDS011;7085;51.428;6.796;2023-01-15T08:51:46;2.17;;;1.00;;
14019;SDS011;7085;51.428;6.796;2023-01-15T08:54:16;3.40;;;1.00;;
14019;SDS011;7085;51.428;6.796;2023-01-15T08:56:44;3.10;;;1.10;;
14019;SDS011;7085;51.428;6.796;2023-01-15T08:59:12;0.73;;;0.70;;
14019;SDS011;7085;51.428;6.796;2023-01-15T09:01:39;3.50;;;1.17;;
14019;SDS011;7085;51.428;6.796;2023-01-15T09:04:06;3.80;;;0.70;;
14019;SDS011;7085;51.428;6.796;2023-01-15T09:06:33;1.67;;;0.60;;
14019;SDS011;7085;51.428;6.796;2023-01-15T09:09:01;1.37;;;0.80;;
14019;SDS011;7085;51.428;6.796;2023-01-15T09:11:28;2.40;;;0.60;;
14019;SDS011;7085;51.428;6.796;2023-01-15T09:13:55;3.70;;;0.90;;
14019;SDS011;7085;51.428;6.796;2023-01-15T09:16:22;1.17;;;0.63;;
14019;SDS011;7085;51.428;6.796;2023-01-15T09:18:51;1.63;;;0.80;;
14019;SDS011;7085;51.428;6.796;2023-01-15T09:21:18;2.80;;;0.90;;
14019;SDS011;7085;51.428;6.796;2023-01-15T09:23:45;4.13;;;1.10;;
14019;SDS011;7085;51.428;6.796;2023-01-15T09:26:24;0.90;;;0.60;;
14019;SDS011;7085;51.428;6.796;2023-01-15T09:28:51;2.63;;;0.80;;
14019;SDS011;7085;51.428;6.796;2023-01-15T09:31:18;1.30;;;0.70;;
14019;SDS011;7085;51.428;6.796;2023-01-15T09:33:45;5.20;;;1.67;;
14019;SDS011;7085;51.428;6.796;2023-01-15T09:36:15;5.33;;;1.37;;
14019;SDS011;7085;51.428;6.796;2023-01-15T09:38:43;1.40;;;1.30;;
14019;SDS011;7085;51.428;6.796;2023-01-15T09:41:10;3.57;;;1.57;;
14019;SDS011;7085;51.428;6.796;2023-01-15T09:44:01;5.50;;;1.50;;
14019;SDS011;7085;51.428;6.796;2023-01-15T09:46:33;3.27;;;1.50;;
14019;SDS011;7085;51.428;6.796;2023-01-15T09:49:04;8.50;;;2.07;;
14019;SDS011;7085;51.428;6.796;2023-01-15T09:51:37;7.17;;;2.20;;
14019;SDS011;7085;51.428;6.796;2023-01-15T09:54:19;6.17;;;2.60;;
14019;SDS011;7085;51.428;6.796;2023-01-15T09:56:53;8.53;;;2.60;;
14019;SDS011;7085;51.428;6.796;2023-01-15T09:59:25;6.67;;;2.67;;
14019;SDS011;7085;51.428;6.796;2023-01-15T10:01:55;8.32;;;2.25;;
14019;SDS011;7085;51.428;6.796;2023-01-15T10:04:27;4.10;;;1.73;;
14019;SDS011;7085;51.428;6.796;2023-01-15T10:06:58;2.53;;;0.95;;
14019;SDS011;7085;51.428;6.796;2023-01-15T10:09:27;5.40;;;1.30;;
14019;SDS011;7085;51.428;6.796;2023-01-15T10:12:00;5.85;;;1.73;;
14019;SDS011;7085;51.428;6.796;2023-01-15T10:14:52;3.35;;;1.42;;
14019;SDS011;7085;51.428;6.796;2023-01-15T10:17:24;4.20;;;1.30;;
14019;SDS011;7085;51.428;6.796;2023-01-15T10:19:51;7.93;;;1.70;;
14019;SDS011;7085;51.428;6.796;2023-01-15T10:22:22;5.25;;;1.05;;
14019;SDS011;7085;51.428;6.796;2023-01-15T10:24:54;4.17;;;1.13;;
14019;SDS011;7085;51.428;6.796;2023-01-15T10:27:22;2.27;;;0.73;;
14019;SDS011;7085;51.428;6.796;2023-01-15T10:29:52;5.28;;;1.52;;
14019;SDS011;7085;51.428;6.796;2023-01-15T10:32:25;3.88;;;1.10;;
14019;SDS011;7085;51.428;6.796;2023-01-15T10:35:10;4.40;;;1.10;;
14019;SDS011;7085;51.428;6.796;2023-01-15T10:37:44;5.30;;;1.02;;
14019;SDS011;7085;51.428;6.796;2023-01-15T10:42:56;2.67;;;1.05;;
14019;SDS011;7085;51.428;6.796;2023-01-15T10:45:27;2.83;;;1.25;;
14019;SDS011;7085;51.428;6.796;2023-01-15T10:47:57;5.43;;;1.23;;
14019;SDS011;7085;51.428;6.796;2023-01-15T10:50:25;3.55;;;1.20;;
14019;SDS011;7085;51.428;6.796;2023-01-15T10:52:56;5.45;;;1.10;;
14019;SDS011;7085;51.428;6.796;2023-01-15T10:55:26;11.07;;;1.63;;
14019;SDS011;7085;51.428;6.796;2023-01-15T10:57:58;4.75;;;1.30;;
14019;SDS011;7085;51.428;6.796;2023-01-15T11:00:27;4.27;;;0.90;;
14019;SDS011;7085;51.428;6.796;2023-01-15T11:02:57;6.90;;;1.30;;
14019;SDS011;7085;51.428;6.796;2023-01-15T11:05:34;6.00;;;1.33;;
14019;SDS011;7085;51.428;6.796;2023-01-15T11:08:02;7.70;;;1.10;;
14019;SDS011;7085;51.428;6.796;2023-01-15T11:10:31;3.37;;;1.00;;
14019;SDS011;7085;51.428;6.796;2023-01-15T11:12:58;2.10;;;1.07;;
14019;SDS011;7085;51.428;6.796;2023-01-15T11:15:45;6.03;;;1.50;;
14019;SDS011;7085;51.428;6.796;2023-01-15T11:18:32;6.43;;;1.30;;
14019;SDS011;7085;51.428;6.796;2023-01-15T11:21:19;6.07;;;1.20;;
14019;SDS011;7085;51.428;6.796;2023-01-15T11:23:47;8.90;;;1.27;;
14019;SDS011;7085;51.428;6.796;2023-01-15T11:26:18;2.97;;;1.30;;
14019;SDS011;7085;51.428;6.796;2023-01-15T11:28:47;7.55;;;1.38;;
14019;SDS011;7085;51.428;6.796;2023-01-15T11:31:16;4.20;;;1.07;;
14019;SDS011;7085;51.428;6.796;2023-01-15T11:33:43;4.43;;;1.30;;
14019;SDS011;7085;51.428;6.796;2023-01-15T11:36:21;5.63;;;1.33;;
14019;SDS011;7085;51.428;6.796;2023-01-15T11:38:49;2.17;;;1.10;;
14019;SDS011;7085;51.428;6.796;2023-01-15T11:41:18;3.23;;;1.10;;
14019;SDS011;7085;51.428;6.796;2023-01-15T11:43:52;1.53;;;0.90;;
14019;SDS011;7085;51.428;6.796;2023-01-15T11:46:39;4.37;;;0.87;;
14019;SDS011;7085;51.428;6.796;2023-01-15T11:49:23;1.63;;;0.90;;
14019;SDS011;7085;51.428;6.796;2023-01-15T11:52:08;5.77;;;1.20;;
14019;SDS011;7085;51.428;6.796;2023-01-15T11:54:36;5.33;;;0.90;;
14019;SDS011;7085;51.428;6.796;2023-01-15T11:57:04;1.97;;;0.93;;
14019;SDS011;7085;51.428;6.796;2023-01-15T11:59:32;7.03;;;1.20;;
14019;SDS011;7085;51.428;6.796;2023-01-15T12:02:01;4.43;;;1.10;;
14019;SDS011;7085;51.428;6.796;2023-01-15T12:04:32;3.13;;;0.80;;
14019;SDS011;7085;51.428;6.796;2023-01-15T12:07:00;3.17;;;0.73;;
14019;SDS011;7085;51.428;6.796;2023-01-15T12:09:30;3.40;;;1.17;;
14019;SDS011;7085;51.428;6.796;2023-01-15T12:12:02;3.67;;;1.00;;
14019;SDS011;7085;51.428;6.796;2023-01-15T12:14:34;4.40;;;1.23;;
14019;SDS011;7085;51.428;6.796;2023-01-15T12:17:08;2.50;;;1.00;;
14019;SDS011;7085;51.428;6.796;2023-01-15T12:19:40;3.73;;;1.13;;
14019;SDS011;7085;51.428;6.796;2023-01-15T12:22:12;3.97;;;1.23;;
14019;SDS011;7085;51.428;6.796;2023-01-15T12:24:52;1.93;;;0.80;;
14019;SDS011;7085;51.428;6.796;2023-01-15T12:27:32;2.37;;;0.70;;
14019;SDS011;7085;51.428;6.796;2023-01-15T12:30:01;3.53;;;0.83;;
14019;SDS011;7085;51.428;6.796;2023-01-15T12:32:32;2.87;;;0.73;;
14019;SDS011;7085;51.428;6.796;2023-01-15T12:35:02;3.27;;;0.90;;
14019;SDS011;7085;51.428;6.796;2023-01-15T12:37:31;4.35;;;1.23;;
14019;SDS011;7085;51.428;6.796;2023-01-15T12:40:07;2.07;;;0.97;;
14019;SDS011;7085;51.428;6.796;2023-01-15T12:42:41;1.53;;;0.90;;
14019;SDS011;7085;51.428;6.796;2023-01-15T12:45:27;2.23;;;0.90;;
14019;SDS011;7085;51.428;6.796;2023-01-15T12:48:01;1.80;;;0.93;;
14019;SDS011;7085;51.428;6.796;2023-01-15T12:50:31;5.28;;;1.10;;
14019;SDS011;7085;51.428;6.796;2023-01-15T12:53:02;3.93;;;1.00;;
14019;SDS011;7085;51.428;6.796;2023-01-15T12:55:33;4.07;;;0.90;;
14019;SDS011;7085;51.428;6.796;2023-01-15T12:58:04;1.77;;;1.23;;
14019;SDS011;7085;51.428;6.796;2023-01-15T13:00:38;3.27;;;0.80;;
14019;SDS011;7085;51.428;6.796;2023-01-15T13:03:16;2.47;;;0.73;;
14019;SDS011;7085;51.428;6.796;2023-01-15T13:05:45;2.90;;;1.00;;
14019;SDS011;7085;51.428;6.796;2023-01-15T13:08:14;1.73;;;0.63;;
14019;SDS011;7085;51.428;6.796;2023-01-15T13:10:44;4.37;;;1.00;;
14019;SDS011;7085;51.428;6.796;2023-01-15T13:13:15;2.47;;;0.70;;
14019;SDS011;7085;51.428;6.796;2023-01-15T13:15:46;5.73;;;1.30;;
14019;SDS011;7085;51.428;6.796;2023-01-15T13:18:17;1.93;;;1.23;;
14019;SDS011;7085;51.428;6.796;2023-01-15T13:20:47;1.63;;;0.90;;
14019;SDS011;7085;51.428;6.796;2023-01-15T13:23:18;1.73;;;1.33;;
14019;SDS011;7085;51.428;6.796;2023-01-15T13:25:53;1.93;;;0.83;;
14019;SDS011;7085;51.428;6.796;2023-01-15T13:28:27;5.40;;;1.47;;
14019;SDS011;7085;51.428;6.796;2023-01-15T13:31:00;3.17;;;1.37;;
14019;SDS011;7085;51.428;6.796;2023-01-15T13:33:34;6.33;;;1.13;;
14019;SDS011;7085;51.428;6.796;2023-01-15T13:36:04;2.07;;;1.10;;
14019;SDS011;7085;51.428;6.796;2023-01-15T13:38:39;2.00;;;0.77;;
14019;SDS011;7085;51.428;6.796;2023-01-15T13:41:07;3.60;;;0.90;;
14019;SDS011;7085;51.428;6.796;2023-01-15T13:43:35;4.80;;;2.03;;
14019;SDS011;7085;51.428;6.796;2023-01-15T13:46:03;2.53;;;1.10;;
14019;SDS011;7085;51.428;6.796;2023-01-15T13:48:33;2.10;;;1.00;;
14019;SDS011;7085;51.428;6.796;2023-01-15T13:51:02;1.87;;;0.93;;
14019;SDS011;7085;51.428;6.796;2023-01-15T13:53:30;1.33;;;0.97;;
14019;SDS011;7085;51.428;6.796;2023-01-15T13:55:58;7.33;;;1.37;;
14019;SDS011;7085;51.428;6.796;2023-01-15T13:58:30;4.23;;;0.80;;
14019;SDS011;7085;51.428;6.796;2023-01-15T14:01:04;2.50;;;1.13;;
14019;SDS011;7085;51.428;6.796;2023-01-15T14:03:33;1.10;;;0.90;;
14019;SDS011;7085;51.428;6.796;2023-01-15T14:06:02;2.87;;;0.87;;
14019;SDS011;7085;51.428;6.796;2023-01-15T14:08:35;5.53;;;1.67;;
14019;SDS011;7085;51.428;6.796;2023-01-15T14:11:03;1.70;;;0.90;;
14019;SDS011;7085;51.428;6.796;2023-01-15T14:13:42;2.13;;;1.27;;
14019;SDS011;7085;51.428;6.796;2023-01-15T14:16:14;2.43;;;1.00;;
14019;SDS011;7085;51.428;6.796;2023-01-15T14:18:58;2.23;;;1.10;;
14019;SDS011;7085;51.428;6.796;2023-01-15T14:21:29;3.73;;;1.20;;
14019;SDS011;7085;51.428;6.796;2023-01-15T14:24:02;2.87;;;1.20;;
14019;SDS011;7085;51.428;6.796;2023-01-15T14:26:35;2.63;;;1.10;;
14019;SDS011;7085;51.428;6.796;2023-01-15T14:29:12;5.20;;;1.37;;
14019;SDS011;7085;51.428;6.796;2023-01-15T14:31:48;1.40;;;0.93;;
14019;SDS011;7085;51.428;6.796;2023-01-15T14:34:21;2.13;;;0.90;;
14019;SDS011;7085;51.428;6.796;2023-01-15T14:36:52;2.30;;;1.10;;
14019;SDS011;7085;51.428;6.796;2023-01-15T14:39:23;3.90;;;1.07;;
14019;SDS011;7085;51.428;6.796;2023-01-15T14:41:54;4.33;;;1.13;;
14019;SDS011;7085;51.428;6.796;2023-01-15T14:44:40;2.67;;;0.70;;
14019;SDS011;7085;51.428;6.796;2023-01-15T14:47:13;1.73;;;0.60;;
14019;SDS011;7085;51.428;6.796;2023-01-15T14:49:45;5.10;;;0.90;;
14019;SDS011;7085;51.428;6.796;2023-01-15T14:52:14;1.60;;;0.90;;
14019;SDS011;7085;51.428;6.796;2023-01-15T14:54:42;0.80;;;0.70;;
14019;SDS011;7085;51.428;6.796;2023-01-15T14:57:09;2.67;;;0.97;;
14019;SDS011;7085;51.428;6.796;2023-01-15T14:59:38;3.50;;;1.13;;
14019;SDS011;7085;51.428;6.796;2023-01-15T15:02:12;5.20;;;1.30;;
14019;SDS011;7085;51.428;6.796;2023-01-15T15:04:42;2.23;;;0.83;;
14019;SDS011;7085;51.428;6.796;2023-01-15T15:07:12;3.13;;;1.37;;
14019;SDS011;7085;51.428;6.796;2023-01-15T15:09:41;2.63;;;1.20;;
14019;SDS011;7085;51.428;6.796;2023-01-15T15:12:24;1.27;;;1.00;;
14019;SDS011;7085;51.428;6.796;2023-01-15T15:14:57;2.70;;;1.53;;
14019;SDS011;7085;51.428;6.796;2023-01-15T15:17:29;5.03;;;1.60;;
14019;SDS011;7085;51.428;6.796;2023-01-15T15:19:59;3.40;;;1.20;;
14019;SDS011;7085;51.428;6.796;2023-01-15T15:22:29;1.67;;;1.20;;